Pagrindinis puslapis
METAR-TAF:

METAR-TAF

Oro uostai :

Mykonos, Graikija

platuma: 37-26-09N, ilguma: 025-20-45E, Aukštis: 123 m

Dabartinis oras

Ataskaita buvo paskelbta 6 valandos ir 54 minutes, ne 20:20 UTC
Vėjas 14 kt iš Šiaurės
Temperatūra 5°C
Drėgmė 70%
Slėgis 1019 hPa
Matomumas 10 km arba daugiau
Mažai debesys ne aukštis 2000 ft

METAR: LGMK 182020Z 36014KT 9999 FEW020 05/M00 Q1019

Laikas: 05:14 (03:14 UTC)

Prognozė

Ataskaita buvo paskelbta 1 valandą ir 14 minutes, ne 02:00 UTC
Prognozė galioja nuo 19 metu 03 UTC su 19 metu 12 UTC
Vėjas 12 kt iš Šiaurės su gūsio iki 22 kt
Matomumas 10 km arba daugiau
Išsisklaidę debesys ne aukštis 2000 ft
Tikimybė 30% :
Laikinai
nuo 19 metu 06 UTC su 19 metu 12 UTC
Matomumas: 5000 m
Išsisklaidę debesys ne aukštis 1500 ft
Su prošvaistėmis ne aukštis 2000 ft
lietus

TAF: LGMK 190200Z 1903/1912 01012G22KT 9999 SCT020 PROB30 TEMPO 1906/1912 5000 RA SCT015 BKN020

Orai ataskaitas ir orų prognozės (METAR, TAF).

turimą stotys yra geltonos ir raudonos taškus žemėlapyje.

Perkelti pele per norėdami pamatyti stoties vardą.

Tada spustelėkite, norėdami matyti oro stebėjimo ir prognozės.

Norėdami pakeisti žemėlapį: spustelėkite ant žalios mygtukų su juodo kryžiaus žemyn,; žalią mygtuką su brūkšneliu, jei norite nutolinti; arba žalių rodyklių gretimoms žemėlapius.


METAR-TAF: